sensor_id;sensor_type;location;lat;lon;timestamp;P1;durP1;ratioP1;P2;durP2;ratioP2
80111;SDS011;69421;51.062;3.728;2024-02-04T00:02:18;21.90;;;10.13;;
80111;SDS011;69421;51.062;3.728;2024-02-04T00:04:45;19.40;;;8.95;;
80111;SDS011;69421;51.062;3.728;2024-02-04T00:07:11;15.63;;;8.27;;
80111;SDS011;69421;51.062;3.728;2024-02-04T00:09:36;25.35;;;8.93;;
80111;SDS011;69421;51.062;3.728;2024-02-04T00:12:01;17.98;;;8.88;;
80111;SDS011;69421;51.062;3.728;2024-02-04T00:14:28;23.08;;;9.45;;
80111;SDS011;69421;51.062;3.728;2024-02-04T00:16:54;22.23;;;9.35;;
80111;SDS011;69421;51.062;3.728;2024-02-04T00:19:19;24.73;;;9.17;;
80111;SDS011;69421;51.062;3.728;2024-02-04T00:21:45;26.00;;;10.70;;
80111;SDS011;69421;51.062;3.728;2024-02-04T00:24:10;20.87;;;8.87;;
80111;SDS011;69421;51.062;3.728;2024-02-04T00:26:35;23.60;;;9.83;;
80111;SDS011;69421;51.062;3.728;2024-02-04T00:29:01;22.50;;;9.13;;
80111;SDS011;69421;51.062;3.728;2024-02-04T00:31:26;23.60;;;9.37;;
80111;SDS011;69421;51.062;3.728;2024-02-04T00:33:52;17.13;;;8.77;;
80111;SDS011;69421;51.062;3.728;2024-02-04T00:36:17;28.77;;;9.77;;
80111;SDS011;69421;51.062;3.728;2024-02-04T00:38:44;24.27;;;9.13;;
80111;SDS011;69421;51.062;3.728;2024-02-04T00:41:09;25.05;;;10.18;;
80111;SDS011;69421;51.062;3.728;2024-02-04T00:43:35;25.02;;;10.75;;
80111;SDS011;69421;51.062;3.728;2024-02-04T00:46:00;22.77;;;8.95;;
80111;SDS011;69421;51.062;3.728;2024-02-04T00:48:26;20.52;;;8.90;;
80111;SDS011;69421;51.062;3.728;2024-02-04T00:50:51;20.73;;;9.02;;
80111;SDS011;69421;51.062;3.728;2024-02-04T00:53:17;28.60;;;10.03;;
80111;SDS011;69421;51.062;3.728;2024-02-04T00:55:42;22.27;;;9.20;;
80111;SDS011;69421;51.062;3.728;2024-02-04T00:58:08;25.90;;;10.80;;
80111;SDS011;69421;51.062;3.728;2024-02-04T01:00:33;22.80;;;10.03;;
80111;SDS011;69421;51.062;3.728;2024-02-04T01:02:59;25.10;;;11.03;;
80111;SDS011;69421;51.062;3.728;2024-02-04T01:05:24;28.20;;;10.63;;
80111;SDS011;69421;51.062;3.728;2024-02-04T01:07:49;36.30;;;11.40;;
80111;SDS011;69421;51.062;3.728;2024-02-04T01:10:15;27.70;;;12.75;;
80111;SDS011;69421;51.062;3.728;2024-02-04T01:12:40;23.45;;;12.32;;
80111;SDS011;69421;51.062;3.728;2024-02-04T01:15:06;27.77;;;12.27;;
80111;SDS011;69421;51.062;3.728;2024-02-04T01:17:31;22.80;;;10.18;;
80111;SDS011;69421;51.062;3.728;2024-02-04T01:19:58;24.77;;;13.45;;
80111;SDS011;69421;51.062;3.728;2024-02-04T01:22:24;30.23;;;12.10;;
80111;SDS011;69421;51.062;3.728;2024-02-04T01:24:52;25.05;;;12.07;;
80111;SDS011;69421;51.062;3.728;2024-02-04T01:27:17;29.60;;;11.70;;
80111;SDS011;69421;51.062;3.728;2024-02-04T01:29:42;29.67;;;11.73;;
80111;SDS011;69421;51.062;3.728;2024-02-04T01:32:08;25.95;;;10.70;;
80111;SDS011;69421;51.062;3.728;2024-02-04T01:34:33;29.07;;;11.57;;
80111;SDS011;69421;51.062;3.728;2024-02-04T01:36:59;32.27;;;12.27;;
80111;SDS011;69421;51.062;3.728;2024-02-04T01:39:24;25.10;;;11.33;;
80111;SDS011;69421;51.062;3.728;2024-02-04T01:41:50;25.35;;;11.20;;
80111;SDS011;69421;51.062;3.728;2024-02-04T01:44:15;26.73;;;11.18;;
80111;SDS011;69421;51.062;3.728;2024-02-04T01:46:41;27.17;;;12.48;;
80111;SDS011;69421;51.062;3.728;2024-02-04T01:49:07;25.20;;;12.68;;
80111;SDS011;69421;51.062;3.728;2024-02-04T01:51:33;30.25;;;11.60;;
80111;SDS011;69421;51.062;3.728;2024-02-04T01:53:58;26.42;;;12.30;;
80111;SDS011;69421;51.062;3.728;2024-02-04T01:56:24;29.17;;;13.07;;
80111;SDS011;69421;51.062;3.728;2024-02-04T01:58:49;34.87;;;14.60;;
80111;SDS011;69421;51.062;3.728;2024-02-04T02:01:15;24.00;;;11.88;;
80111;SDS011;69421;51.062;3.728;2024-02-04T02:03:40;25.25;;;10.20;;
80111;SDS011;69421;51.062;3.728;2024-02-04T02:06:06;27.52;;;11.63;;
80111;SDS011;69421;51.062;3.728;2024-02-04T02:08:32;22.42;;;10.10;;
80111;SDS011;69421;51.062;3.728;2024-02-04T02:11:02;25.70;;;10.18;;
80111;SDS011;69421;51.062;3.728;2024-02-04T02:13:32;25.88;;;10.32;;
80111;SDS011;69421;51.062;3.728;2024-02-04T02:16:02;21.40;;;10.23;;
80111;SDS011;69421;51.062;3.728;2024-02-04T02:18:36;19.23;;;9.73;;
80111;SDS011;69421;51.062;3.728;2024-02-04T02:24:16;18.80;;;8.38;;
80111;SDS011;69421;51.062;3.728;2024-02-04T02:26:47;23.13;;;9.05;;
80111;SDS011;69421;51.062;3.728;2024-02-04T02:29:13;17.88;;;6.63;;
80111;SDS011;69421;51.062;3.728;2024-02-04T02:31:39;18.23;;;8.35;;
80111;SDS011;69421;51.062;3.728;2024-02-04T02:34:06;19.42;;;8.52;;
80111;SDS011;69421;51.062;3.728;2024-02-04T02:39:27;21.80;;;10.07;;
80111;SDS011;69421;51.062;3.728;2024-02-04T02:41:57;24.80;;;8.13;;
80111;SDS011;69421;51.062;3.728;2024-02-04T02:44:27;24.75;;;8.13;;
80111;SDS011;69421;51.062;3.728;2024-02-04T02:46:56;21.10;;;9.63;;
80111;SDS011;69421;51.062;3.728;2024-02-04T02:49:22;27.42;;;11.07;;
80111;SDS011;69421;51.062;3.728;2024-02-04T02:51:48;18.80;;;8.35;;
80111;SDS011;69421;51.062;3.728;2024-02-04T02:54:13;25.02;;;9.93;;
80111;SDS011;69421;51.062;3.728;2024-02-04T02:56:38;20.63;;;8.25;;
80111;SDS011;69421;51.062;3.728;2024-02-04T02:59:04;21.58;;;8.68;;
80111;SDS011;69421;51.062;3.728;2024-02-04T03:01:30;19.40;;;6.90;;
80111;SDS011;69421;51.062;3.728;2024-02-04T03:03:55;20.23;;;8.75;;
80111;SDS011;69421;51.062;3.728;2024-02-04T03:06:21;24.50;;;8.50;;
80111;SDS011;69421;51.062;3.728;2024-02-04T03:08:46;20.67;;;7.97;;
80111;SDS011;69421;51.062;3.728;2024-02-04T03:11:12;15.77;;;6.38;;
80111;SDS011;69421;51.062;3.728;2024-02-04T03:13:40;19.67;;;7.20;;
80111;SDS011;69421;51.062;3.728;2024-02-04T03:16:12;14.68;;;6.97;;
80111;SDS011;69421;51.062;3.728;2024-02-04T03:18:41;16.60;;;7.65;;
80111;SDS011;69421;51.062;3.728;2024-02-04T03:21:14;16.17;;;7.03;;
80111;SDS011;69421;51.062;3.728;2024-02-04T03:26:08;15.45;;;6.57;;
80111;SDS011;69421;51.062;3.728;2024-02-04T03:28:34;19.17;;;7.78;;
80111;SDS011;69421;51.062;3.728;2024-02-04T03:31:00;19.25;;;8.73;;
80111;SDS011;69421;51.062;3.728;2024-02-04T03:33:25;23.50;;;10.25;;
80111;SDS011;69421;51.062;3.728;2024-02-04T03:35:51;19.23;;;8.77;;
80111;SDS011;69421;51.062;3.728;2024-02-04T03:38:16;22.03;;;10.13;;
80111;SDS011;69421;51.062;3.728;2024-02-04T03:40:42;24.33;;;9.77;;
80111;SDS011;69421;51.062;3.728;2024-02-04T03:43:08;21.20;;;9.18;;
80111;SDS011;69421;51.062;3.728;2024-02-04T03:45:35;20.25;;;10.02;;
80111;SDS011;69421;51.062;3.728;2024-02-04T03:48:00;22.80;;;9.88;;
80111;SDS011;69421;51.062;3.728;2024-02-04T03:50:26;20.85;;;9.23;;
80111;SDS011;69421;51.062;3.728;2024-02-04T03:52:51;15.87;;;8.10;;
80111;SDS011;69421;51.062;3.728;2024-02-04T03:55:18;19.65;;;8.60;;
80111;SDS011;69421;51.062;3.728;2024-02-04T03:57:43;20.20;;;7.57;;
80111;SDS011;69421;51.062;3.728;2024-02-04T04:00:09;22.05;;;9.27;;
80111;SDS011;69421;51.062;3.728;2024-02-04T04:02:35;18.25;;;8.35;;
80111;SDS011;69421;51.062;3.728;2024-02-04T04:05:00;18.40;;;7.83;;
80111;SDS011;69421;51.062;3.728;2024-02-04T04:07:25;20.87;;;10.10;;
80111;SDS011;69421;51.062;3.728;2024-02-04T04:09:51;17.53;;;8.07;;
80111;SDS011;69421;51.062;3.728;2024-02-04T04:12:16;20.17;;;8.17;;
80111;SDS011;69421;51.062;3.728;2024-02-04T04:14:42;17.58;;;6.82;;
80111;SDS011;69421;51.062;3.728;2024-02-04T04:17:07;16.00;;;6.25;;
80111;SDS011;69421;51.062;3.728;2024-02-04T04:19:32;17.07;;;6.60;;
80111;SDS011;69421;51.062;3.728;2024-02-04T04:22:01;15.05;;;6.22;;
80111;SDS011;69421;51.062;3.728;2024-02-04T04:24:27;15.40;;;7.20;;
80111;SDS011;69421;51.062;3.728;2024-02-04T04:26:52;14.53;;;7.60;;
80111;SDS011;69421;51.062;3.728;2024-02-04T04:29:17;15.40;;;8.05;;
80111;SDS011;69421;51.062;3.728;2024-02-04T04:31:43;18.67;;;7.17;;
80111;SDS011;69421;51.062;3.728;2024-02-04T04:34:08;21.47;;;7.30;;
80111;SDS011;69421;51.062;3.728;2024-02-04T04:36:34;16.65;;;6.35;;
80111;SDS011;69421;51.062;3.728;2024-02-04T04:38:59;21.88;;;8.45;;
80111;SDS011;69421;51.062;3.728;2024-02-04T04:41:25;24.40;;;8.80;;
80111;SDS011;69421;51.062;3.728;2024-02-04T04:43:50;17.05;;;7.22;;
80111;SDS011;69421;51.062;3.728;2024-02-04T04:46:16;18.20;;;6.83;;
80111;SDS011;69421;51.062;3.728;2024-02-04T04:48:41;22.03;;;6.77;;
80111;SDS011;69421;51.062;3.728;2024-02-04T04:51:10;11.60;;;5.50;;
80111;SDS011;69421;51.062;3.728;2024-02-04T04:53:36;15.10;;;7.20;;
80111;SDS011;69421;51.062;3.728;2024-02-04T04:56:02;14.15;;;5.88;;
80111;SDS011;69421;51.062;3.728;2024-02-04T04:58:27;16.52;;;6.13;;
80111;SDS011;69421;51.062;3.728;2024-02-04T05:00:53;16.87;;;6.10;;
80111;SDS011;69421;51.062;3.728;2024-02-04T05:03:18;15.65;;;6.25;;
80111;SDS011;69421;51.062;3.728;2024-02-04T05:05:44;12.10;;;6.13;;
80111;SDS011;69421;51.062;3.728;2024-02-04T05:08:10;14.55;;;5.35;;
80111;SDS011;69421;51.062;3.728;2024-02-04T05:10:36;14.68;;;5.85;;
80111;SDS011;69421;51.062;3.728;2024-02-04T05:13:02;20.60;;;6.33;;
80111;SDS011;69421;51.062;3.728;2024-02-04T05:15:27;15.05;;;5.03;;
80111;SDS011;69421;51.062;3.728;2024-02-04T05:17:54;15.20;;;5.53;;
80111;SDS011;69421;51.062;3.728;2024-02-04T05:20:20;13.97;;;5.20;;
80111;SDS011;69421;51.062;3.728;2024-02-04T05:22:45;12.20;;;5.20;;
80111;SDS011;69421;51.062;3.728;2024-02-04T05:25:11;15.13;;;5.35;;
80111;SDS011;69421;51.062;3.728;2024-02-04T05:27:36;18.35;;;5.82;;
80111;SDS011;69421;51.062;3.728;2024-02-04T05:30:02;14.77;;;6.43;;
80111;SDS011;69421;51.062;3.728;2024-02-04T05:32:27;11.57;;;4.85;;
80111;SDS011;69421;51.062;3.728;2024-02-04T05:34:53;11.30;;;5.45;;
80111;SDS011;69421;51.062;3.728;2024-02-04T05:37:18;16.27;;;5.32;;
80111;SDS011;69421;51.062;3.728;2024-02-04T05:39:44;14.82;;;5.82;;
80111;SDS011;69421;51.062;3.728;2024-02-04T05:42:09;11.03;;;5.73;;
80111;SDS011;69421;51.062;3.728;2024-02-04T05:44:35;13.40;;;5.70;;
80111;SDS011;69421;51.062;3.728;2024-02-04T05:47:00;19.43;;;6.53;;
80111;SDS011;69421;51.062;3.728;2024-02-04T05:49:26;15.57;;;6.17;;
80111;SDS011;69421;51.062;3.728;2024-02-04T05:51:51;15.90;;;5.80;;
80111;SDS011;69421;51.062;3.728;2024-02-04T05:54:16;16.03;;;6.03;;
80111;SDS011;69421;51.062;3.728;2024-02-04T05:56:42;21.67;;;6.50;;
80111;SDS011;69421;51.062;3.728;2024-02-04T05:59:07;14.90;;;6.67;;
80111;SDS011;69421;51.062;3.728;2024-02-04T06:01:33;18.88;;;6.55;;
80111;SDS011;69421;51.062;3.728;2024-02-04T06:03:58;13.35;;;6.70;;
80111;SDS011;69421;51.062;3.728;2024-02-04T06:06:23;18.93;;;7.00;;
80111;SDS011;69421;51.062;3.728;2024-02-04T06:08:49;15.37;;;6.73;;
80111;SDS011;69421;51.062;3.728;2024-02-04T06:11:15;12.93;;;5.73;;
80111;SDS011;69421;51.062;3.728;2024-02-04T06:13:41;10.57;;;4.88;;
80111;SDS011;69421;51.062;3.728;2024-02-04T06:16:07;15.80;;;6.57;;
80111;SDS011;69421;51.062;3.728;2024-02-04T06:18:34;15.43;;;6.25;;
80111;SDS011;69421;51.062;3.728;2024-02-04T06:21:01;17.35;;;6.10;;
80111;SDS011;69421;51.062;3.728;2024-02-04T06:23:27;16.02;;;6.55;;
80111;SDS011;69421;51.062;3.728;2024-02-04T06:25:52;13.77;;;5.30;;
80111;SDS011;69421;51.062;3.728;2024-02-04T06:28:18;18.23;;;6.13;;
80111;SDS011;69421;51.062;3.728;2024-02-04T06:30:43;13.97;;;6.43;;
80111;SDS011;69421;51.062;3.728;2024-02-04T06:33:08;14.88;;;5.95;;
80111;SDS011;69421;51.062;3.728;2024-02-04T06:35:34;15.60;;;5.77;;
80111;SDS011;69421;51.062;3.728;2024-02-04T06:37:59;14.60;;;6.13;;
80111;SDS011;69421;51.062;3.728;2024-02-04T06:40:24;17.40;;;5.20;;
80111;SDS011;69421;51.062;3.728;2024-02-04T06:42:50;11.43;;;5.23;;
80111;SDS011;69421;51.062;3.728;2024-02-04T06:45:15;11.60;;;5.57;;
80111;SDS011;69421;51.062;3.728;2024-02-04T06:47:43;11.73;;;5.95;;
80111;SDS011;69421;51.062;3.728;2024-02-04T06:50:09;13.15;;;6.07;;
80111;SDS011;69421;51.062;3.728;2024-02-04T06:52:39;14.00;;;5.18;;
80111;SDS011;69421;51.062;3.728;2024-02-04T06:55:05;7.25;;;4.60;;
80111;SDS011;69421;51.062;3.728;2024-02-04T06:57:30;11.30;;;4.10;;
80111;SDS011;69421;51.062;3.728;2024-02-04T06:59:56;6.50;;;3.47;;
80111;SDS011;69421;51.062;3.728;2024-02-04T07:02:21;12.43;;;3.57;;
80111;SDS011;69421;51.062;3.728;2024-02-04T07:04:46;6.83;;;3.17;;
80111;SDS011;69421;51.062;3.728;2024-02-04T07:07:12;5.80;;;2.83;;
80111;SDS011;69421;51.062;3.728;2024-02-04T07:09:37;10.80;;;2.90;;
80111;SDS011;69421;51.062;3.728;2024-02-04T07:12:03;13.73;;;2.90;;
80111;SDS011;69421;51.062;3.728;2024-02-04T07:14:28;9.43;;;2.70;;
80111;SDS011;69421;51.062;3.728;2024-02-04T07:16:54;5.67;;;3.00;;
80111;SDS011;69421;51.062;3.728;2024-02-04T07:19:19;9.77;;;2.87;;
80111;SDS011;69421;51.062;3.728;2024-02-04T07:21:44;4.80;;;2.57;;
80111;SDS011;69421;51.062;3.728;2024-02-04T07:24:10;8.13;;;3.67;;
80111;SDS011;69421;51.062;3.728;2024-02-04T07:26:35;5.27;;;2.23;;
80111;SDS011;69421;51.062;3.728;2024-02-04T07:29:01;7.38;;;2.78;;
80111;SDS011;69421;51.062;3.728;2024-02-04T07:31:26;4.33;;;2.10;;
80111;SDS011;69421;51.062;3.728;2024-02-04T07:33:51;5.83;;;2.70;;
80111;SDS011;69421;51.062;3.728;2024-02-04T07:36:17;6.83;;;2.47;;
80111;SDS011;69421;51.062;3.728;2024-02-04T07:38:42;9.52;;;2.47;;
80111;SDS011;69421;51.062;3.728;2024-02-04T07:41:08;6.43;;;3.20;;
80111;SDS011;69421;51.062;3.728;2024-02-04T07:43:33;11.30;;;3.03;;
80111;SDS011;69421;51.062;3.728;2024-02-04T07:45:59;8.80;;;2.67;;
80111;SDS011;69421;51.062;3.728;2024-02-04T07:48:24;4.43;;;2.45;;
80111;SDS011;69421;51.062;3.728;2024-02-04T07:50:49;6.65;;;2.50;;
80111;SDS011;69421;51.062;3.728;2024-02-04T07:53:15;7.00;;;2.50;;
80111;SDS011;69421;51.062;3.728;2024-02-04T07:55:40;7.60;;;1.97;;
80111;SDS011;69421;51.062;3.728;2024-02-04T07:58:06;7.80;;;2.88;;
80111;SDS011;69421;51.062;3.728;2024-02-04T08:00:31;3.20;;;1.17;;
80111;SDS011;69421;51.062;3.728;2024-02-04T08:02:56;5.27;;;1.80;;
80111;SDS011;69421;51.062;3.728;2024-02-04T08:05:22;6.53;;;1.80;;
80111;SDS011;69421;51.062;3.728;2024-02-04T08:07:47;4.82;;;1.38;;
80111;SDS011;69421;51.062;3.728;2024-02-04T08:10:13;4.13;;;1.10;;
80111;SDS011;69421;51.062;3.728;2024-02-04T08:12:40;5.05;;;1.75;;
80111;SDS011;69421;51.062;3.728;2024-02-04T08:15:06;5.00;;;1.73;;
80111;SDS011;69421;51.062;3.728;2024-02-04T08:17:31;5.65;;;1.73;;
80111;SDS011;69421;51.062;3.728;2024-02-04T08:19:58;4.68;;;1.52;;
80111;SDS011;69421;51.062;3.728;2024-02-04T08:22:23;7.20;;;1.60;;
80111;SDS011;69421;51.062;3.728;2024-02-04T08:24:48;9.10;;;3.58;;
80111;SDS011;69421;51.062;3.728;2024-02-04T08:27:14;8.67;;;1.50;;
80111;SDS011;69421;51.062;3.728;2024-02-04T08:29:43;6.53;;;1.95;;
80111;SDS011;69421;51.062;3.728;2024-02-04T08:32:08;6.00;;;2.42;;
80111;SDS011;69421;51.062;3.728;2024-02-04T08:34:34;3.58;;;1.83;;
80111;SDS011;69421;51.062;3.728;2024-02-04T08:36:59;5.13;;;1.67;;
80111;SDS011;69421;51.062;3.728;2024-02-04T08:39:25;3.47;;;1.65;;
80111;SDS011;69421;51.062;3.728;2024-02-04T08:41:50;4.78;;;1.98;;
80111;SDS011;69421;51.062;3.728;2024-02-04T08:44:16;5.25;;;2.13;;
80111;SDS011;69421;51.062;3.728;2024-02-04T08:46:41;5.38;;;1.88;;
80111;SDS011;69421;51.062;3.728;2024-02-04T08:49:07;5.03;;;1.90;;
80111;SDS011;69421;51.062;3.728;2024-02-04T08:51:32;6.00;;;1.93;;
80111;SDS011;69421;51.062;3.728;2024-02-04T08:53:58;4.00;;;1.97;;
80111;SDS011;69421;51.062;3.728;2024-02-04T08:56:23;8.20;;;2.03;;
80111;SDS011;69421;51.062;3.728;2024-02-04T08:58:49;6.60;;;2.10;;
80111;SDS011;69421;51.062;3.728;2024-02-04T09:01:14;5.37;;;1.87;;
80111;SDS011;69421;51.062;3.728;2024-02-04T09:03:39;6.40;;;2.25;;
80111;SDS011;69421;51.062;3.728;2024-02-04T09:06:05;2.93;;;1.93;;
80111;SDS011;69421;51.062;3.728;2024-02-04T09:08:30;4.50;;;1.88;;
80111;SDS011;69421;51.062;3.728;2024-02-04T09:10:56;7.22;;;1.90;;
80111;SDS011;69421;51.062;3.728;2024-02-04T09:13:22;4.20;;;1.60;;
80111;SDS011;69421;51.062;3.728;2024-02-04T09:15:48;7.97;;;2.08;;
80111;SDS011;69421;51.062;3.728;2024-02-04T09:18:14;5.35;;;1.73;;
80111;SDS011;69421;51.062;3.728;2024-02-04T09:20:39;6.13;;;1.90;;
80111;SDS011;69421;51.062;3.728;2024-02-04T09:23:05;5.45;;;1.75;;
80111;SDS011;69421;51.062;3.728;2024-02-04T09:25:30;16.95;;;9.32;;
80111;SDS011;69421;51.062;3.728;2024-02-04T09:27:56;6.60;;;2.37;;
80111;SDS011;69421;51.062;3.728;2024-02-04T09:30:21;5.25;;;1.52;;
80111;SDS011;69421;51.062;3.728;2024-02-04T09:32:47;4.03;;;1.33;;
80111;SDS011;69421;51.062;3.728;2024-02-04T09:35:12;6.80;;;1.73;;
80111;SDS011;69421;51.062;3.728;2024-02-04T09:37:38;7.93;;;3.50;;
80111;SDS011;69421;51.062;3.728;2024-02-04T09:40:03;10.13;;;4.37;;
80111;SDS011;69421;51.062;3.728;2024-02-04T09:42:29;6.80;;;1.42;;
80111;SDS011;69421;51.062;3.728;2024-02-04T09:44:56;4.60;;;1.70;;
80111;SDS011;69421;51.062;3.728;2024-02-04T09:47:21;5.10;;;1.88;;
80111;SDS011;69421;51.062;3.728;2024-02-04T09:49:47;3.08;;;1.10;;
80111;SDS011;69421;51.062;3.728;2024-02-04T09:52:13;5.90;;;1.92;;
80111;SDS011;69421;51.062;3.728;2024-02-04T09:54:49;8.77;;;3.08;;
80111;SDS011;69421;51.062;3.728;2024-02-04T09:57:15;3.67;;;1.23;;
80111;SDS011;69421;51.062;3.728;2024-02-04T09:59:43;8.93;;;6.50;;
80111;SDS011;69421;51.062;3.728;2024-02-04T10:02:09;67.85;;;36.78;;
80111;SDS011;69421;51.062;3.728;2024-02-04T10:04:35;11.40;;;8.18;;
80111;SDS011;69421;51.062;3.728;2024-02-04T10:07:00;14.13;;;7.90;;
80111;SDS011;69421;51.062;3.728;2024-02-04T10:09:26;8.32;;;4.82;;
80111;SDS011;69421;51.062;3.728;2024-02-04T10:11:51;8.77;;;4.18;;
80111;SDS011;69421;51.062;3.728;2024-02-04T10:14:16;4.43;;;2.07;;
80111;SDS011;69421;51.062;3.728;2024-02-04T10:16:44;4.00;;;2.85;;
80111;SDS011;69421;51.062;3.728;2024-02-04T10:19:09;8.65;;;4.28;;
80111;SDS011;69421;51.062;3.728;2024-02-04T10:21:36;5.72;;;1.52;;
80111;SDS011;69421;51.062;3.728;2024-02-04T10:24:02;5.87;;;3.30;;
80111;SDS011;69421;51.062;3.728;2024-02-04T10:26:30;5.57;;;2.92;;
80111;SDS011;69421;51.062;3.728;2024-02-04T10:28:57;6.70;;;2.20;;
80111;SDS011;69421;51.062;3.728;2024-02-04T10:31:22;3.40;;;1.88;;
80111;SDS011;69421;51.062;3.728;2024-02-04T10:33:48;5.93;;;2.58;;
80111;SDS011;69421;51.062;3.728;2024-02-04T10:36:15;3.60;;;2.20;;
80111;SDS011;69421;51.062;3.728;2024-02-04T10:38:40;4.77;;;1.70;;
80111;SDS011;69421;51.062;3.728;2024-02-04T10:41:05;4.40;;;1.73;;
80111;SDS011;69421;51.062;3.728;2024-02-04T10:43:32;3.90;;;1.63;;
80111;SDS011;69421;51.062;3.728;2024-02-04T10:46:01;6.93;;;2.90;;
80111;SDS011;69421;51.062;3.728;2024-02-04T10:48:36;4.90;;;2.83;;
80111;SDS011;69421;51.062;3.728;2024-02-04T10:51:08;6.93;;;2.60;;
80111;SDS011;69421;51.062;3.728;2024-02-04T10:53:37;6.97;;;3.60;;
80111;SDS011;69421;51.062;3.728;2024-02-04T10:56:04;9.93;;;3.72;;
80111;SDS011;69421;51.062;3.728;2024-02-04T10:58:31;6.88;;;2.10;;
80111;SDS011;69421;51.062;3.728;2024-02-04T11:00:57;6.88;;;3.30;;
80111;SDS011;69421;51.062;3.728;2024-02-04T11:03:22;9.20;;;2.92;;
80111;SDS011;69421;51.062;3.728;2024-02-04T11:05:52;4.15;;;1.88;;
80111;SDS011;69421;51.062;3.728;2024-02-04T11:08:17;11.85;;;3.47;;
80111;SDS011;69421;51.062;3.728;2024-02-04T11:10:43;6.82;;;2.33;;
80111;SDS011;69421;51.062;3.728;2024-02-04T11:13:08;5.63;;;1.92;;
80111;SDS011;69421;51.062;3.728;2024-02-04T11:15:35;6.70;;;2.45;;
80111;SDS011;69421;51.062;3.728;2024-02-04T11:20:54;4.90;;;1.65;;
80111;SDS011;69421;51.062;3.728;2024-02-04T11:26:19;6.07;;;1.90;;
80111;SDS011;69421;51.062;3.728;2024-02-04T11:28:45;7.30;;;2.55;;
80111;SDS011;69421;51.062;3.728;2024-02-04T11:31:17;11.60;;;7.75;;
80111;SDS011;69421;51.062;3.728;2024-02-04T11:33:43;5.40;;;3.13;;
80111;SDS011;69421;51.062;3.728;2024-02-04T11:36:12;5.28;;;2.08;;
80111;SDS011;69421;51.062;3.728;2024-02-04T11:38:38;9.52;;;3.53;;
80111;SDS011;69421;51.062;3.728;2024-02-04T11:41:04;7.63;;;4.80;;
80111;SDS011;69421;51.062;3.728;2024-02-04T11:43:34;23.73;;;12.73;;
80111;SDS011;69421;51.062;3.728;2024-02-04T11:46:02;8.75;;;4.20;;
80111;SDS011;69421;51.062;3.728;2024-02-04T11:48:34;6.68;;;2.08;;
80111;SDS011;69421;51.062;3.728;2024-02-04T11:51:01;12.05;;;7.55;;
80111;SDS011;69421;51.062;3.728;2024-02-04T11:53:28;9.32;;;5.03;;
80111;SDS011;69421;51.062;3.728;2024-02-04T11:55:57;34.58;;;20.73;;
80111;SDS011;69421;51.062;3.728;2024-02-04T11:58:24;22.00;;;11.23;;
80111;SDS011;69421;51.062;3.728;2024-02-04T12:00:51;8.70;;;5.13;;
80111;SDS011;69421;51.062;3.728;2024-02-04T12:03:28;16.25;;;6.93;;
80111;SDS011;69421;51.062;3.728;2024-02-04T12:05:57;6.15;;;2.42;;
80111;SDS011;69421;51.062;3.728;2024-02-04T12:08:23;5.13;;;1.10;;
80111;SDS011;69421;51.062;3.728;2024-02-04T12:10:48;35.75;;;20.20;;
80111;SDS011;69421;51.062;3.728;2024-02-04T12:13:14;60.78;;;31.13;;
80111;SDS011;69421;51.062;3.728;2024-02-04T12:15:40;26.50;;;13.48;;
80111;SDS011;69421;51.062;3.728;2024-02-04T12:18:09;7.03;;;3.80;;
80111;SDS011;69421;51.062;3.728;2024-02-04T12:20:36;7.15;;;2.00;;
80111;SDS011;69421;51.062;3.728;2024-02-04T12:23:02;3.60;;;2.08;;
80111;SDS011;69421;51.062;3.728;2024-02-04T12:25:31;7.03;;;1.90;;
80111;SDS011;69421;51.062;3.728;2024-02-04T12:28:00;7.93;;;1.85;;
80111;SDS011;69421;51.062;3.728;2024-02-04T12:30:28;5.78;;;3.83;;
80111;SDS011;69421;51.062;3.728;2024-02-04T12:33:01;5.03;;;1.60;;
80111;SDS011;69421;51.062;3.728;2024-02-04T12:35:29;7.80;;;3.03;;
80111;SDS011;69421;51.062;3.728;2024-02-04T12:37:55;4.82;;;2.10;;
80111;SDS011;69421;51.062;3.728;2024-02-04T12:40:22;2.63;;;1.20;;
80111;SDS011;69421;51.062;3.728;2024-02-04T12:42:52;5.57;;;1.73;;
80111;SDS011;69421;51.062;3.728;2024-02-04T12:45:25;5.95;;;3.63;;
80111;SDS011;69421;51.062;3.728;2024-02-04T12:47:54;3.22;;;1.40;;
80111;SDS011;69421;51.062;3.728;2024-02-04T12:50:21;3.95;;;2.00;;
80111;SDS011;69421;51.062;3.728;2024-02-04T12:52:47;6.28;;;4.10;;
80111;SDS011;69421;51.062;3.728;2024-02-04T12:55:22;7.65;;;3.53;;
80111;SDS011;69421;51.062;3.728;2024-02-04T12:57:48;13.55;;;5.43;;
80111;SDS011;69421;51.062;3.728;2024-02-04T13:00:17;46.00;;;26.42;;
80111;SDS011;69421;51.062;3.728;2024-02-04T13:02:43;23.67;;;11.85;;
80111;SDS011;69421;51.062;3.728;2024-02-04T13:05:08;13.10;;;6.67;;
80111;SDS011;69421;51.062;3.728;2024-02-04T13:07:34;6.15;;;3.13;;
80111;SDS011;69421;51.062;3.728;2024-02-04T13:09:59;4.07;;;2.47;;
80111;SDS011;69421;51.062;3.728;2024-02-04T13:12:25;6.28;;;1.65;;
80111;SDS011;69421;51.062;3.728;2024-02-04T13:14:51;4.88;;;1.50;;
80111;SDS011;69421;51.062;3.728;2024-02-04T13:17:16;5.32;;;2.92;;
80111;SDS011;69421;51.062;3.728;2024-02-04T13:19:42;8.68;;;4.40;;
80111;SDS011;69421;51.062;3.728;2024-02-04T13:22:08;8.35;;;2.75;;
80111;SDS011;69421;51.062;3.728;2024-02-04T13:24:39;7.88;;;2.70;;
80111;SDS011;69421;51.062;3.728;2024-02-04T13:27:04;7.40;;;3.13;;
80111;SDS011;69421;51.062;3.728;2024-02-04T13:29:31;7.43;;;1.88;;
80111;SDS011;69421;51.062;3.728;2024-02-04T13:31:56;17.67;;;9.60;;
80111;SDS011;69421;51.062;3.728;2024-02-04T13:34:22;29.27;;;13.40;;
80111;SDS011;69421;51.062;3.728;2024-02-04T13:36:47;21.40;;;11.23;;
80111;SDS011;69421;51.062;3.728;2024-02-04T13:39:13;18.60;;;6.75;;
80111;SDS011;69421;51.062;3.728;2024-02-04T13:41:41;11.18;;;4.43;;
80111;SDS011;69421;51.062;3.728;2024-02-04T13:44:07;5.68;;;1.75;;
80111;SDS011;69421;51.062;3.728;2024-02-04T13:46:32;9.20;;;4.10;;
80111;SDS011;69421;51.062;3.728;2024-02-04T13:48:58;9.45;;;3.92;;
80111;SDS011;69421;51.062;3.728;2024-02-04T13:51:23;6.57;;;2.73;;
80111;SDS011;69421;51.062;3.728;2024-02-04T13:53:49;12.00;;;2.42;;
80111;SDS011;69421;51.062;3.728;2024-02-04T13:56:14;7.70;;;2.58;;
80111;SDS011;69421;51.062;3.728;2024-02-04T13:58:40;16.40;;;5.65;;
80111;SDS011;69421;51.062;3.728;2024-02-04T14:01:05;9.68;;;2.78;;
80111;SDS011;69421;51.062;3.728;2024-02-04T14:03:31;7.78;;;2.38;;
80111;SDS011;69421;51.062;3.728;2024-02-04T14:05:57;9.98;;;2.50;;
80111;SDS011;69421;51.062;3.728;2024-02-04T14:08:22;7.88;;;2.42;;
80111;SDS011;69421;51.062;3.728;2024-02-04T14:10:47;8.65;;;3.17;;
80111;SDS011;69421;51.062;3.728;2024-02-04T14:13:13;5.10;;;1.53;;
80111;SDS011;69421;51.062;3.728;2024-02-04T14:15:38;7.83;;;2.93;;
80111;SDS011;69421;51.062;3.728;2024-02-04T14:18:04;10.53;;;2.30;;
80111;SDS011;69421;51.062;3.728;2024-02-04T14:20:30;8.63;;;1.98;;
80111;SDS011;69421;51.062;3.728;2024-02-04T14:22:56;7.88;;;3.20;;
80111;SDS011;69421;51.062;3.728;2024-02-04T14:25:22;13.05;;;3.00;;
80111;SDS011;69421;51.062;3.728;2024-02-04T14:27:49;9.13;;;3.22;;
80111;SDS011;69421;51.062;3.728;2024-02-04T14:30:15;12.50;;;5.07;;
80111;SDS011;69421;51.062;3.728;2024-02-04T14:32:40;13.00;;;3.58;;
80111;SDS011;69421;51.062;3.728;2024-02-04T14:35:07;8.60;;;3.47;;
80111;SDS011;69421;51.062;3.728;2024-02-04T14:37:34;10.68;;;6.85;;
80111;SDS011;69421;51.062;3.728;2024-02-04T14:40:00;10.38;;;2.67;;
80111;SDS011;69421;51.062;3.728;2024-02-04T14:42:27;7.90;;;1.90;;
80111;SDS011;69421;51.062;3.728;2024-02-04T14:44:52;11.18;;;4.57;;
80111;SDS011;69421;51.062;3.728;2024-02-04T14:47:18;9.47;;;2.83;;